Uniontown, Pennsylvania
Current Conditions -  °F | °C
As of 3:53 AM on Saturday 22 Nov 2014 (Local Time) from KMGW Reporting Station
Clear Clear  
Wind Chill: 19°   Ceiling: Unl
Heat Index: 19°   Visibility: 10mi
Dew Point:   Wind: 0mph
Humidity: 65%   Direction: NA
Pressure: 30.4"   Gusts: NA
Location:  39.9°N, 79.73°W
Report Text: KMGW 220853Z AUTO 00000KT 10SM CLR M07/M13 A3040 RMK AO2 SLP310 T10721128 58010 TSNO
Loading
Personal Weather Stations






























Interactive Weather Map New forecast layout! Learn more

10-Day Weather Forecast

Advertisements
Track Severe Weather on mobile